Portada
METAR-TAF:

METAR-TAF

Aeropuertos :

Badajoz, España

Aeropuerto de Badajoz

latitud: 38-53N, longitud: 006-49W, altitud: 185 m

Observación

El informe se hizo hace 57 minutos, a las 07:00 UTC
Viento calma
Temperatura 21°C
Humedad 64%
Presión 1016 hPa
Visibilidad 10 km o más
sin nubes por debajo de 1500 m y sin presencia de cumulonimbus.

METAR: LEBZ 200700Z 00000KT CAVOK 21/14 Q1016

Hora: 09:57 (07:57 UTC)

Pronóstico

El informe se hizo hace 2 horas y 57 minutos, a las 05:00 UTC
Pronóstico válido del 20 a las 06 UTC al 21 a las 06 UTC
Viento 5 kt del este-noreste
Visibilidad 10 km o más
sin nubes por debajo de 1500 m y sin presencia de cumulonimbus.
Evolucionando progresivamente
del 20 a las 20 UTC al 20 a las 22 UTC
Viento 10 kt del sur-suroeste

TAF: LEBZ 200500Z 2006/2106 06005KT CAVOK TX39/2016Z TN18/2006Z BECMG 2020/2022 21010KT

Observaciones y pronósticos meteorológicos de más de 4000 aeropuertos (mensajes METAR y TAF).

Los puntos amarillos y rojos representan las estaciones disponibles.

Ponga el ratón en el punto deseado para ver el nombre de la estación.

Haga clic para ver las observaciones y los pronósticos meteorológicos.

Para cambiar el mapa : haga clic en los botones verdes con una cruz de color negro para hacer un zoom, en el botón verde con un guión para alejar o en las flechas verdes para mapas adyacentes.


METAR-TAF: